createdAt,value
2022-09-17T00:02:59.410Z,2.70
2022-09-17T00:08:01.168Z,3.67
2022-09-17T00:13:02.696Z,4.60
2022-09-17T00:18:04.232Z,3.58
2022-09-17T00:23:06.826Z,4.38
2022-09-17T00:28:09.180Z,3.33
2022-09-17T00:33:15.984Z,3.30
2022-09-17T00:38:17.483Z,2.42
2022-09-17T00:43:49.671Z,4.47
2022-09-17T00:48:54.087Z,3.53
2022-09-17T00:53:56.483Z,6.63
2022-09-17T00:58:58.489Z,1.90
2022-09-17T01:04:00.325Z,5.90
2022-09-17T01:09:07.110Z,4.00
2022-09-17T01:14:14.725Z,5.22
2022-09-17T01:19:37.488Z,4.22
2022-09-17T01:24:49.467Z,2.38
2022-09-17T01:30:12.441Z,2.33
2022-09-17T01:35:38.288Z,2.80
2022-09-17T01:40:54.050Z,4.30
2022-09-17T01:46:21.027Z,3.58
2022-09-17T01:51:25.286Z,3.88
2022-09-17T01:56:33.938Z,2.38
2022-09-17T02:01:38.455Z,3.72
2022-09-17T02:06:46.379Z,3.72
2022-09-17T02:11:55.321Z,3.25
2022-09-17T02:17:11.054Z,2.38
2022-09-17T02:22:28.066Z,3.33
2022-09-17T02:32:39.500Z,2.58
2022-09-17T02:37:42.381Z,2.55
2022-09-17T02:43:03.939Z,3.90
2022-09-17T02:48:12.725Z,4.22
2022-09-17T02:53:38.245Z,2.83
2022-09-17T02:59:11.728Z,3.28
2022-09-17T03:04:17.342Z,3.40
2022-09-17T03:09:19.023Z,1.65
2022-09-17T03:14:20.886Z,2.72
2022-09-17T03:19:22.487Z,5.25
2022-09-17T03:24:24.058Z,4.68
2022-09-17T03:29:25.807Z,3.20
2022-09-17T03:34:27.341Z,6.13
2022-09-17T03:39:29.797Z,2.53
2022-09-17T03:44:31.427Z,7.50
2022-09-17T03:49:33.202Z,3.67
2022-09-17T03:54:34.760Z,2.45
2022-09-17T03:59:36.326Z,3.35
2022-09-17T04:04:37.936Z,3.65
2022-09-17T04:09:39.463Z,1.88
2022-09-17T04:14:41.005Z,6.65
2022-09-17T04:19:42.554Z,3.08
2022-09-17T04:24:44.137Z,3.92
2022-09-17T04:29:45.725Z,2.22
2022-09-17T04:34:47.327Z,3.45
2022-09-17T04:39:48.944Z,3.22
2022-09-17T04:44:50.560Z,4.78
2022-09-17T04:49:52.228Z,2.67
2022-09-17T04:54:53.761Z,2.97
2022-09-17T04:59:55.306Z,3.67
2022-09-17T05:04:56.929Z,2.60
2022-09-17T05:09:58.498Z,3.45
2022-09-17T05:15:00.132Z,3.80
2022-09-17T05:20:02.001Z,2.80
2022-09-17T05:25:03.857Z,2.55
2022-09-17T05:30:06.417Z,2.50
2022-09-17T05:35:09.202Z,3.45
2022-09-17T05:40:10.931Z,0.93
2022-09-17T05:45:12.817Z,2.35
2022-09-17T05:50:14.572Z,1.85
2022-09-17T05:55:16.571Z,3.83
2022-09-17T06:00:18.946Z,1.52
2022-09-17T06:05:20.611Z,5.53
2022-09-17T06:10:22.342Z,1.83
2022-09-17T06:15:24.197Z,1.35
2022-09-17T06:20:25.861Z,1.70
2022-09-17T06:25:27.476Z,1.40
2022-09-17T06:30:29.533Z,1.75
2022-09-17T06:35:31.364Z,0.93
2022-09-17T06:40:33.220Z,2.05
2022-09-17T06:45:34.843Z,0.85
2022-09-17T06:50:40.589Z,1.38
2022-09-17T06:55:44.146Z,0.40
2022-09-17T07:00:45.755Z,0.40
2022-09-17T07:05:47.706Z,0.35
2022-09-17T07:10:49.430Z,1.50
2022-09-17T07:15:59.524Z,0.32
2022-09-17T07:21:06.072Z,2.55
2022-09-17T07:26:12.828Z,5.38
2022-09-17T07:31:16.532Z,4.00
2022-09-17T07:36:18.614Z,7.72
2022-09-17T07:41:20.213Z,5.10
2022-09-17T07:46:21.845Z,9.65
2022-09-17T07:51:25.734Z,5.90
2022-09-17T07:56:27.904Z,8.07
2022-09-17T08:01:29.764Z,7.38
2022-09-17T08:06:31.402Z,11.00
2022-09-17T08:16:54.870Z,7.32
2022-09-17T08:21:56.742Z,9.70
2022-09-17T08:26:58.321Z,8.98
2022-09-17T08:31:59.985Z,5.57
2022-09-17T08:37:01.601Z,8.65
2022-09-17T08:42:31.341Z,8.90
2022-09-17T08:47:41.190Z,10.10
2022-09-17T08:52:59.682Z,7.72
2022-09-17T08:58:22.779Z,11.18
2022-09-17T09:03:49.318Z,6.03
2022-09-17T09:08:59.038Z,9.57
2022-09-17T09:14:09.670Z,8.93
2022-09-17T09:19:26.877Z,5.18
2022-09-17T09:24:42.235Z,6.82
2022-09-17T09:30:04.326Z,5.88
2022-09-17T09:35:18.935Z,5.18
2022-09-17T09:40:48.655Z,4.80
2022-09-17T09:46:11.444Z,5.57
2022-09-17T09:51:20.544Z,5.80
2022-09-17T09:56:52.843Z,4.43
2022-09-17T10:01:54.603Z,4.35
2022-09-17T10:07:08.641Z,3.63
2022-09-17T10:12:10.905Z,3.58
2022-09-17T10:17:26.620Z,4.47
2022-09-17T10:22:32.630Z,3.50
2022-09-17T10:27:36.811Z,2.17
2022-09-17T10:32:38.404Z,4.25
2022-09-17T10:37:48.814Z,7.10
2022-09-17T10:43:11.196Z,2.35
2022-09-17T10:48:18.161Z,9.32
2022-09-17T10:53:23.297Z,3.90
2022-09-17T10:58:39.194Z,5.78
2022-09-17T11:04:21.094Z,4.65
2022-09-17T11:09:30.451Z,2.50
2022-09-17T11:15:00.871Z,5.55
2022-09-17T11:20:27.148Z,3.20
2022-09-17T11:25:39.701Z,4.47
2022-09-17T11:30:55.441Z,4.45
2022-09-17T11:36:04.354Z,5.37
2022-09-17T11:41:31.090Z,4.22
2022-09-17T11:46:40.536Z,7.93
2022-09-17T11:51:58.475Z,3.13
2022-09-17T11:57:16.838Z,5.05
2022-09-17T12:02:27.310Z,3.88
2022-09-17T12:07:33.834Z,5.90
2022-09-17T12:12:49.984Z,4.15
2022-09-17T12:18:31.313Z,5.22
2022-09-17T12:23:40.228Z,4.57
2022-09-17T12:28:47.039Z,4.82
2022-09-17T12:39:12.927Z,5.30
2022-09-17T12:44:25.922Z,6.18
2022-09-17T12:49:43.364Z,4.20
2022-09-17T12:54:54.727Z,5.57
2022-09-17T13:00:11.739Z,3.13
2022-09-17T13:05:41.414Z,5.18
2022-09-17T13:11:20.179Z,4.55
2022-09-17T13:16:41.165Z,7.00
2022-09-17T13:22:00.355Z,4.50
2022-09-17T13:27:03.909Z,2.40
2022-09-17T13:32:05.418Z,2.65
2022-09-17T13:37:20.391Z,3.00
2022-09-17T13:42:29.241Z,3.33
2022-09-17T13:47:56.975Z,2.80
2022-09-17T13:53:06.608Z,3.38
2022-09-17T13:58:36.409Z,4.72
2022-09-17T14:03:42.028Z,5.30
2022-09-17T14:08:43.701Z,7.63
2022-09-17T14:13:45.929Z,2.67
2022-09-17T14:18:58.888Z,3.97
2022-09-17T14:24:03.688Z,6.28
2022-09-17T14:29:43.639Z,3.75
2022-09-17T14:34:45.412Z,4.13
2022-09-17T14:39:49.083Z,5.47
2022-09-17T14:45:02.368Z,8.32
2022-09-17T14:50:26.381Z,5.75
2022-09-17T14:55:31.873Z,4.82
2022-09-17T15:00:38.091Z,5.57
2022-09-17T15:05:41.073Z,4.23
2022-09-17T15:11:02.674Z,6.95
2022-09-17T15:16:12.833Z,6.63
2022-09-17T15:21:43.458Z,4.25
2022-09-17T15:26:51.491Z,3.25
2022-09-17T15:31:53.454Z,4.07
2022-09-17T15:37:24.934Z,5.97
2022-09-17T15:42:29.503Z,5.50
2022-09-17T15:47:48.640Z,5.20
2022-09-17T15:52:51.797Z,5.40
2022-09-17T15:57:53.635Z,5.72
2022-09-17T16:02:55.638Z,4.30
2022-09-17T16:08:18.146Z,4.50
2022-09-17T16:13:19.795Z,4.05
2022-09-17T16:18:21.441Z,4.75
2022-09-17T16:23:23.178Z,4.75
2022-09-17T16:28:24.841Z,2.85
2022-09-17T16:33:28.273Z,3.25
2022-09-17T16:38:29.837Z,3.35
2022-09-17T16:43:33.787Z,3.45
2022-09-17T16:48:35.392Z,3.60
2022-09-17T16:53:37.337Z,3.63
2022-09-17T16:58:40.161Z,5.15
2022-09-17T17:03:42.232Z,6.68
2022-09-17T17:08:43.925Z,4.63
2022-09-17T17:13:45.647Z,5.38
2022-09-17T17:18:47.315Z,3.08
2022-09-17T17:23:49.083Z,3.53
2022-09-17T17:28:50.834Z,6.60
2022-09-17T17:33:52.697Z,7.30
2022-09-17T17:39:00.898Z,5.63
2022-09-17T17:44:02.850Z,4.68
2022-09-17T17:49:04.830Z,2.83
2022-09-17T17:54:06.602Z,4.28
2022-09-17T17:59:08.401Z,5.50
2022-09-17T18:04:10.122Z,1.85
2022-09-17T18:09:11.790Z,3.00
2022-09-17T18:14:13.930Z,1.42
2022-09-17T18:19:15.598Z,3.45
2022-09-17T18:24:17.216Z,2.58
2022-09-17T18:29:18.902Z,1.65
2022-09-17T18:34:20.563Z,2.78
2022-09-17T18:44:44.131Z,2.80
2022-09-17T18:49:45.767Z,4.07
2022-09-17T18:54:47.362Z,2.45
2022-09-17T18:59:48.951Z,1.35
2022-09-17T19:04:50.542Z,1.42
2022-09-17T19:09:52.162Z,1.77
2022-09-17T19:14:54.424Z,4.07
2022-09-17T19:19:56.011Z,1.48
2022-09-17T19:24:57.675Z,3.30
2022-09-17T19:30:00.468Z,2.83
2022-09-17T19:35:02.282Z,3.25
2022-09-17T19:40:05.787Z,1.25
2022-09-17T19:45:08.071Z,2.45
2022-09-17T19:50:09.795Z,3.13
2022-09-17T19:55:13.077Z,1.85
2022-09-17T20:00:15.640Z,1.48
2022-09-17T20:05:17.342Z,1.90
2022-09-17T20:10:19.496Z,2.10
2022-09-17T20:15:21.098Z,3.85
2022-09-17T20:20:28.297Z,2.85
2022-09-17T20:25:29.948Z,4.32
2022-09-17T20:30:31.542Z,4.85
2022-09-17T20:35:35.756Z,2.33
2022-09-17T20:40:37.460Z,2.60
2022-09-17T20:45:39.095Z,1.48
2022-09-17T20:50:40.762Z,2.53
2022-09-17T20:55:42.341Z,0.63
2022-09-17T21:00:44.023Z,3.10
2022-09-17T21:05:45.693Z,1.25
2022-09-17T21:10:47.254Z,1.58
2022-09-17T21:16:00.066Z,2.75
2022-09-17T21:21:07.622Z,1.30
2022-09-17T21:26:14.804Z,0.75
2022-09-17T21:36:36.301Z,0.70
2022-09-17T21:41:42.368Z,0.93
2022-09-17T21:46:44.654Z,3.17
2022-09-17T21:51:46.514Z,1.33
2022-09-17T21:56:48.118Z,1.10
2022-09-17T22:01:50.639Z,2.70
2022-09-17T22:06:53.368Z,1.80
2022-09-17T22:11:55.124Z,2.38
2022-09-17T22:16:57.222Z,1.65
2022-09-17T22:21:59.005Z,1.30
2022-09-17T22:27:00.626Z,2.05
2022-09-17T22:32:02.585Z,0.88
2022-09-17T22:37:06.103Z,2.33
2022-09-17T22:42:07.697Z,1.50
2022-09-17T22:47:09.340Z,1.52
2022-09-17T22:52:10.973Z,1.52
2022-09-17T22:57:12.530Z,1.40
2022-09-17T23:02:14.127Z,1.52
2022-09-17T23:07:15.680Z,1.13
2022-09-17T23:12:17.308Z,1.33
2022-09-17T23:17:18.959Z,0.80
2022-09-17T23:22:23.137Z,3.17
2022-09-17T23:27:24.695Z,1.73
2022-09-17T23:32:26.326Z,1.75
2022-09-17T23:37:28.149Z,1.17
2022-09-17T23:42:29.791Z,3.38
2022-09-17T23:47:31.704Z,2.15
2022-09-17T23:52:33.297Z,2.03
2022-09-17T23:57:34.843Z,1.27
